Aviation Digital Data Service (ADDS)

Output produced by TAFs form (2201 UTC 03 July 2015)
found at http://www.aviationweather.gov/adds/tafs/
 
KPOU 031720Z 0318/0418 VRB05KT P6SM FEW060 
     FM032300 VRB03KT P6SM SCT120 BKN250 
     FM040700 VRB03KT P6SM BKN060 OVC120 
     FM041400 06005KT 6SM -RA FEW015 SCT030 OVC060